sensor_id;sensor_type;location;lat;lon;timestamp;P1;durP1;ratioP1;P2;durP2;ratioP2
21000;SDS011;10658;50.920;12.238;2023-07-13T00:03:58;1.60;;;1.08;;
21000;SDS011;10658;50.920;12.238;2023-07-13T00:07:59;1.85;;;1.40;;
21000;SDS011;10658;50.920;12.238;2023-07-13T00:12:00;1.35;;;1.20;;
21000;SDS011;10658;50.920;12.238;2023-07-13T00:16:01;1.70;;;1.38;;
21000;SDS011;10658;50.920;12.238;2023-07-13T00:20:02;1.30;;;1.20;;
21000;SDS011;10658;50.920;12.238;2023-07-13T00:24:05;2.08;;;1.30;;
21000;SDS011;10658;50.920;12.238;2023-07-13T00:28:07;2.08;;;1.13;;
21000;SDS011;10658;50.920;12.238;2023-07-13T00:32:08;3.70;;;1.50;;
21000;SDS011;10658;50.920;12.238;2023-07-13T00:36:10;3.50;;;1.42;;
21000;SDS011;10658;50.920;12.238;2023-07-13T00:40:12;1.25;;;1.15;;
21000;SDS011;10658;50.920;12.238;2023-07-13T00:44:14;2.47;;;1.35;;
21000;SDS011;10658;50.920;12.238;2023-07-13T00:48:20;1.65;;;1.30;;
21000;SDS011;10658;50.920;12.238;2023-07-13T00:52:22;2.20;;;1.50;;
21000;SDS011;10658;50.920;12.238;2023-07-13T00:56:23;3.30;;;1.52;;
21000;SDS011;10658;50.920;12.238;2023-07-13T01:00:24;1.33;;;1.23;;
21000;SDS011;10658;50.920;12.238;2023-07-13T01:04:26;1.30;;;1.20;;
21000;SDS011;10658;50.920;12.238;2023-07-13T01:08:29;2.45;;;1.48;;
21000;SDS011;10658;50.920;12.238;2023-07-13T01:12:29;2.38;;;1.20;;
21000;SDS011;10658;50.920;12.238;2023-07-13T01:16:31;1.75;;;1.60;;
21000;SDS011;10658;50.920;12.238;2023-07-13T01:20:33;2.47;;;1.42;;
21000;SDS011;10658;50.920;12.238;2023-07-13T01:24:37;2.67;;;1.65;;
21000;SDS011;10658;50.920;12.238;2023-07-13T01:28:38;4.78;;;1.00;;
21000;SDS011;10658;50.920;12.238;2023-07-13T01:32:42;4.25;;;1.55;;
21000;SDS011;10658;50.920;12.238;2023-07-13T01:36:42;3.20;;;1.27;;
21000;SDS011;10658;50.920;12.238;2023-07-13T01:40:43;2.45;;;1.38;;
21000;SDS011;10658;50.920;12.238;2023-07-13T01:44:44;2.30;;;1.63;;
21000;SDS011;10658;50.920;12.238;2023-07-13T01:48:45;2.25;;;1.60;;
21000;SDS011;10658;50.920;12.238;2023-07-13T01:52:46;2.47;;;1.30;;
21000;SDS011;10658;50.920;12.238;2023-07-13T01:56:48;1.65;;;1.55;;
21000;SDS011;10658;50.920;12.238;2023-07-13T02:00:49;1.70;;;1.60;;
21000;SDS011;10658;50.920;12.238;2023-07-13T02:04:51;2.35;;;1.38;;
21000;SDS011;10658;50.920;12.238;2023-07-13T02:08:52;1.65;;;1.55;;
21000;SDS011;10658;50.920;12.238;2023-07-13T02:12:53;1.38;;;1.27;;
21000;SDS011;10658;50.920;12.238;2023-07-13T02:16:54;1.70;;;1.58;;
21000;SDS011;10658;50.920;12.238;2023-07-13T02:20:54;2.00;;;1.63;;
21000;SDS011;10658;50.920;12.238;2023-07-13T02:24:55;3.28;;;1.63;;
21000;SDS011;10658;50.920;12.238;2023-07-13T02:28:56;2.80;;;1.65;;
21000;SDS011;10658;50.920;12.238;2023-07-13T02:32:57;2.13;;;1.40;;
21000;SDS011;10658;50.920;12.238;2023-07-13T02:36:57;3.63;;;1.50;;
21000;SDS011;10658;50.920;12.238;2023-07-13T02:40:58;2.05;;;1.60;;
21000;SDS011;10658;50.920;12.238;2023-07-13T02:45:00;1.95;;;1.65;;
21000;SDS011;10658;50.920;12.238;2023-07-13T02:49:01;2.17;;;1.65;;
21000;SDS011;10658;50.920;12.238;2023-07-13T02:53:02;1.55;;;1.45;;
21000;SDS011;10658;50.920;12.238;2023-07-13T02:57:03;3.15;;;1.77;;
21000;SDS011;10658;50.920;12.238;2023-07-13T03:01:08;3.17;;;1.73;;
21000;SDS011;10658;50.920;12.238;2023-07-13T03:05:10;3.85;;;1.90;;
21000;SDS011;10658;50.920;12.238;2023-07-13T03:09:13;2.03;;;1.45;;
21000;SDS011;10658;50.920;12.238;2023-07-13T03:13:17;3.45;;;1.40;;
21000;SDS011;10658;50.920;12.238;2023-07-13T03:17:18;1.92;;;1.40;;
21000;SDS011;10658;50.920;12.238;2023-07-13T03:21:19;2.60;;;1.90;;
21000;SDS011;10658;50.920;12.238;2023-07-13T03:25:20;2.97;;;1.38;;
21000;SDS011;10658;50.920;12.238;2023-07-13T03:29:23;2.75;;;1.80;;
21000;SDS011;10658;50.920;12.238;2023-07-13T03:33:25;3.78;;;1.80;;
21000;SDS011;10658;50.920;12.238;2023-07-13T03:37:26;3.55;;;1.85;;
21000;SDS011;10658;50.920;12.238;2023-07-13T03:41:26;3.42;;;2.05;;
21000;SDS011;10658;50.920;12.238;2023-07-13T03:45:29;5.28;;;1.95;;
21000;SDS011;10658;50.920;12.238;2023-07-13T03:49:30;2.75;;;1.40;;
21000;SDS011;10658;50.920;12.238;2023-07-13T03:53:30;5.38;;;1.83;;
21000;SDS011;10658;50.920;12.238;2023-07-13T03:57:31;5.32;;;1.80;;
21000;SDS011;10658;50.920;12.238;2023-07-13T04:01:33;2.38;;;1.77;;
21000;SDS011;10658;50.920;12.238;2023-07-13T04:05:34;6.65;;;2.42;;
21000;SDS011;10658;50.920;12.238;2023-07-13T04:09:35;4.13;;;2.10;;
21000;SDS011;10658;50.920;12.238;2023-07-13T04:13:37;1.85;;;1.75;;
21000;SDS011;10658;50.920;12.238;2023-07-13T04:17:37;8.02;;;2.40;;
21000;SDS011;10658;50.920;12.238;2023-07-13T04:21:38;4.75;;;2.08;;
21000;SDS011;10658;50.920;12.238;2023-07-13T04:25:39;5.13;;;2.00;;
21000;SDS011;10658;50.920;12.238;2023-07-13T04:29:43;3.20;;;1.90;;
21000;SDS011;10658;50.920;12.238;2023-07-13T04:33:44;2.85;;;2.03;;
21000;SDS011;10658;50.920;12.238;2023-07-13T04:37:45;2.95;;;1.92;;
21000;SDS011;10658;50.920;12.238;2023-07-13T04:41:45;2.42;;;1.70;;
21000;SDS011;10658;50.920;12.238;2023-07-13T04:45:46;5.32;;;1.80;;
21000;SDS011;10658;50.920;12.238;2023-07-13T04:49:47;3.78;;;2.05;;
21000;SDS011;10658;50.920;12.238;2023-07-13T04:53:47;4.05;;;1.98;;
21000;SDS011;10658;50.920;12.238;2023-07-13T04:57:48;2.25;;;2.05;;
21000;SDS011;10658;50.920;12.238;2023-07-13T05:01:49;5.35;;;1.92;;
21000;SDS011;10658;50.920;12.238;2023-07-13T05:05:57;2.42;;;2.22;;
21000;SDS011;10658;50.920;12.238;2023-07-13T05:10:03;5.97;;;1.85;;
21000;SDS011;10658;50.920;12.238;2023-07-13T05:14:04;4.72;;;2.30;;
21000;SDS011;10658;50.920;12.238;2023-07-13T05:18:05;2.50;;;1.67;;
21000;SDS011;10658;50.920;12.238;2023-07-13T05:22:06;4.30;;;2.15;;
21000;SDS011;10658;50.920;12.238;2023-07-13T05:26:06;2.00;;;1.83;;
21000;SDS011;10658;50.920;12.238;2023-07-13T05:30:07;8.48;;;2.08;;
21000;SDS011;10658;50.920;12.238;2023-07-13T05:34:11;4.82;;;2.00;;
21000;SDS011;10658;50.920;12.238;2023-07-13T05:38:11;4.72;;;2.20;;
21000;SDS011;10658;50.920;12.238;2023-07-13T05:42:12;4.47;;;2.53;;
21000;SDS011;10658;50.920;12.238;2023-07-13T05:46:13;3.95;;;2.33;;
21000;SDS011;10658;50.920;12.238;2023-07-13T05:50:14;3.20;;;2.33;;
21000;SDS011;10658;50.920;12.238;2023-07-13T05:54:15;2.03;;;1.92;;
21000;SDS011;10658;50.920;12.238;2023-07-13T05:58:17;4.38;;;2.28;;
21000;SDS011;10658;50.920;12.238;2023-07-13T06:02:18;2.95;;;2.58;;
21000;SDS011;10658;50.920;12.238;2023-07-13T06:06:19;2.78;;;2.53;;
21000;SDS011;10658;50.920;12.238;2023-07-13T06:10:20;3.75;;;2.10;;
21000;SDS011;10658;50.920;12.238;2023-07-13T06:14:21;4.65;;;2.50;;
21000;SDS011;10658;50.920;12.238;2023-07-13T06:18:21;4.60;;;2.15;;
21000;SDS011;10658;50.920;12.238;2023-07-13T06:22:22;3.40;;;2.00;;
21000;SDS011;10658;50.920;12.238;2023-07-13T06:26:25;4.90;;;2.20;;
21000;SDS011;10658;50.920;12.238;2023-07-13T06:30:28;4.72;;;2.05;;
21000;SDS011;10658;50.920;12.238;2023-07-13T06:34:29;3.47;;;1.88;;
21000;SDS011;10658;50.920;12.238;2023-07-13T06:38:30;4.10;;;1.55;;
21000;SDS011;10658;50.920;12.238;2023-07-13T06:42:31;2.17;;;1.70;;
21000;SDS011;10658;50.920;12.238;2023-07-13T06:46:32;2.95;;;1.90;;
21000;SDS011;10658;50.920;12.238;2023-07-13T06:50:33;3.17;;;1.73;;
21000;SDS011;10658;50.920;12.238;2023-07-13T06:54:34;3.30;;;1.92;;
21000;SDS011;10658;50.920;12.238;2023-07-13T06:58:35;3.15;;;1.75;;
21000;SDS011;10658;50.920;12.238;2023-07-13T07:02:36;2.60;;;1.88;;
21000;SDS011;10658;50.920;12.238;2023-07-13T07:06:37;6.38;;;1.83;;
21000;SDS011;10658;50.920;12.238;2023-07-13T07:10:37;4.85;;;2.10;;
21000;SDS011;10658;50.920;12.238;2023-07-13T07:14:39;6.30;;;2.35;;
21000;SDS011;10658;50.920;12.238;2023-07-13T07:18:39;3.38;;;1.73;;
21000;SDS011;10658;50.920;12.238;2023-07-13T07:22:40;4.78;;;1.77;;
21000;SDS011;10658;50.920;12.238;2023-07-13T07:26:41;2.25;;;1.70;;
21000;SDS011;10658;50.920;12.238;2023-07-13T07:30:42;2.08;;;1.60;;
21000;SDS011;10658;50.920;12.238;2023-07-13T07:34:43;4.38;;;2.63;;
21000;SDS011;10658;50.920;12.238;2023-07-13T07:38:44;2.85;;;1.60;;
21000;SDS011;10658;50.920;12.238;2023-07-13T07:42:45;2.85;;;1.67;;
21000;SDS011;10658;50.920;12.238;2023-07-13T07:46:45;6.97;;;2.60;;
21000;SDS011;10658;50.920;12.238;2023-07-13T07:50:46;4.35;;;1.80;;
21000;SDS011;10658;50.920;12.238;2023-07-13T07:54:47;7.88;;;2.35;;
21000;SDS011;10658;50.920;12.238;2023-07-13T07:58:48;3.53;;;1.77;;
21000;SDS011;10658;50.920;12.238;2023-07-13T08:02:48;5.13;;;1.77;;
21000;SDS011;10658;50.920;12.238;2023-07-13T08:06:50;2.03;;;1.85;;
21000;SDS011;10658;50.920;12.238;2023-07-13T08:10:51;2.75;;;1.85;;
21000;SDS011;10658;50.920;12.238;2023-07-13T08:14:53;5.32;;;1.90;;
21000;SDS011;10658;50.920;12.238;2023-07-13T08:18:53;4.97;;;2.25;;
21000;SDS011;10658;50.920;12.238;2023-07-13T08:22:54;5.82;;;2.03;;
21000;SDS011;10658;50.920;12.238;2023-07-13T08:26:55;3.65;;;1.80;;
21000;SDS011;10658;50.920;12.238;2023-07-13T08:31:03;6.57;;;2.03;;
21000;SDS011;10658;50.920;12.238;2023-07-13T08:35:05;3.83;;;1.67;;
21000;SDS011;10658;50.920;12.238;2023-07-13T08:39:06;3.80;;;1.50;;
21000;SDS011;10658;50.920;12.238;2023-07-13T08:56:43;2.92;;;1.10;;
21000;SDS011;10658;50.920;12.238;2023-07-13T09:00:52;4.47;;;1.55;;
21000;SDS011;10658;50.920;12.238;2023-07-13T09:05:10;4.20;;;1.60;;
21000;SDS011;10658;50.920;12.238;2023-07-13T09:18:11;2.88;;;1.77;;
21000;SDS011;10658;50.920;12.238;2023-07-13T09:22:20;2.08;;;1.52;;
21000;SDS011;10658;50.920;12.238;2023-07-13T09:26:25;2.83;;;1.70;;
21000;SDS011;10658;50.920;12.238;2023-07-13T09:30:40;4.28;;;1.77;;
21000;SDS011;10658;50.920;12.238;2023-07-13T09:34:55;3.50;;;1.60;;
21000;SDS011;10658;50.920;12.238;2023-07-13T09:39:09;1.90;;;1.45;;
21000;SDS011;10658;50.920;12.238;2023-07-13T09:43:27;2.33;;;1.60;;
21000;SDS011;10658;50.920;12.238;2023-07-13T09:47:32;2.15;;;1.42;;
21000;SDS011;10658;50.920;12.238;2023-07-13T09:51:41;3.28;;;1.70;;
21000;SDS011;10658;50.920;12.238;2023-07-13T09:55:46;5.80;;;1.67;;
21000;SDS011;10658;50.920;12.238;2023-07-13T09:59:54;5.95;;;1.65;;
21000;SDS011;10658;50.920;12.238;2023-07-13T10:04:02;5.97;;;1.77;;
21000;SDS011;10658;50.920;12.238;2023-07-13T10:12:27;2.83;;;1.50;;
21000;SDS011;10658;50.920;12.238;2023-07-13T10:16:32;4.00;;;1.88;;
21000;SDS011;10658;50.920;12.238;2023-07-13T10:20:36;4.13;;;2.05;;
21000;SDS011;10658;50.920;12.238;2023-07-13T10:24:38;4.43;;;1.75;;
21000;SDS011;10658;50.920;12.238;2023-07-13T10:28:42;2.65;;;1.45;;
21000;SDS011;10658;50.920;12.238;2023-07-13T10:32:49;6.65;;;1.85;;
21000;SDS011;10658;50.920;12.238;2023-07-13T10:36:54;4.30;;;1.52;;
21000;SDS011;10658;50.920;12.238;2023-07-13T10:41:05;2.22;;;1.15;;
21000;SDS011;10658;50.920;12.238;2023-07-13T10:45:14;5.40;;;1.75;;
21000;SDS011;10658;50.920;12.238;2023-07-13T10:49:39;2.47;;;1.92;;
21000;SDS011;10658;50.920;12.238;2023-07-13T10:53:43;2.45;;;1.38;;
21000;SDS011;10658;50.920;12.238;2023-07-13T10:57:51;3.35;;;1.15;;
21000;SDS011;10658;50.920;12.238;2023-07-13T11:02:17;4.15;;;1.83;;
21000;SDS011;10658;50.920;12.238;2023-07-13T11:10:54;3.30;;;1.58;;
21000;SDS011;10658;50.920;12.238;2023-07-13T11:15:03;1.60;;;1.27;;
21000;SDS011;10658;50.920;12.238;2023-07-13T11:23:21;2.90;;;1.88;;
21000;SDS011;10658;50.920;12.238;2023-07-13T11:31:53;3.17;;;1.50;;
21000;SDS011;10658;50.920;12.238;2023-07-13T11:36:03;1.70;;;1.13;;
21000;SDS011;10658;50.920;12.238;2023-07-13T11:40:17;3.13;;;1.85;;
21000;SDS011;10658;50.920;12.238;2023-07-13T11:44:20;3.90;;;0.90;;
21000;SDS011;10658;50.920;12.238;2023-07-13T11:48:26;0.93;;;0.70;;
21000;SDS011;10658;50.920;12.238;2023-07-13T11:52:33;2.15;;;0.60;;
21000;SDS011;10658;50.920;12.238;2023-07-13T11:56:37;1.92;;;0.85;;
21000;SDS011;10658;50.920;12.238;2023-07-13T12:00:38;1.30;;;1.10;;
21000;SDS011;10658;50.920;12.238;2023-07-13T12:04:42;1.02;;;0.77;;
21000;SDS011;10658;50.920;12.238;2023-07-13T12:08:43;8.05;;;0.82;;
21000;SDS011;10658;50.920;12.238;2023-07-13T12:13:03;0.90;;;0.90;;
21000;SDS011;10658;50.920;12.238;2023-07-13T12:17:09;2.08;;;0.52;;
21000;SDS011;10658;50.920;12.238;2023-07-13T12:21:18;1.45;;;0.70;;
21000;SDS011;10658;50.920;12.238;2023-07-13T12:25:22;1.60;;;0.70;;
21000;SDS011;10658;50.920;12.238;2023-07-13T12:29:24;0.70;;;0.70;;
21000;SDS011;10658;50.920;12.238;2023-07-13T12:33:27;1.63;;;0.77;;
21000;SDS011;10658;50.920;12.238;2023-07-13T12:37:29;1.90;;;0.70;;
21000;SDS011;10658;50.920;12.238;2023-07-13T12:41:35;2.50;;;0.90;;
21000;SDS011;10658;50.920;12.238;2023-07-13T12:45:35;2.17;;;0.70;;
21000;SDS011;10658;50.920;12.238;2023-07-13T12:49:39;0.90;;;0.50;;
21000;SDS011;10658;50.920;12.238;2023-07-13T12:53:47;1.85;;;0.70;;
21000;SDS011;10658;50.920;12.238;2023-07-13T12:57:51;0.90;;;0.68;;
21000;SDS011;10658;50.920;12.238;2023-07-13T13:01:56;2.42;;;0.93;;
21000;SDS011;10658;50.920;12.238;2023-07-13T13:05:58;1.95;;;0.80;;
21000;SDS011;10658;50.920;12.238;2023-07-13T13:09:59;1.83;;;0.50;;
21000;SDS011;10658;50.920;12.238;2023-07-13T13:14:00;1.15;;;0.60;;
21000;SDS011;10658;50.920;12.238;2023-07-13T13:18:01;1.50;;;0.57;;
21000;SDS011;10658;50.920;12.238;2023-07-13T13:22:02;1.08;;;0.77;;
21000;SDS011;10658;50.920;12.238;2023-07-13T13:26:02;1.75;;;0.70;;
21000;SDS011;10658;50.920;12.238;2023-07-13T13:30:11;0.52;;;0.52;;
21000;SDS011;10658;50.920;12.238;2023-07-13T13:34:15;1.40;;;0.47;;
21000;SDS011;10658;50.920;12.238;2023-07-13T13:38:17;0.95;;;0.50;;
21000;SDS011;10658;50.920;12.238;2023-07-13T13:42:25;1.15;;;0.52;;
21000;SDS011;10658;50.920;12.238;2023-07-13T13:46:27;1.77;;;0.60;;
21000;SDS011;10658;50.920;12.238;2023-07-13T13:50:30;0.93;;;0.70;;
21000;SDS011;10658;50.920;12.238;2023-07-13T13:54:30;2.83;;;0.73;;
21000;SDS011;10658;50.920;12.238;2023-07-13T13:58:32;1.85;;;0.75;;
21000;SDS011;10658;50.920;12.238;2023-07-13T14:02:32;1.20;;;0.70;;
21000;SDS011;10658;50.920;12.238;2023-07-13T14:06:33;1.52;;;0.80;;
21000;SDS011;10658;50.920;12.238;2023-07-13T14:10:34;1.10;;;0.68;;
21000;SDS011;10658;50.920;12.238;2023-07-13T14:14:35;0.65;;;0.63;;
21000;SDS011;10658;50.920;12.238;2023-07-13T14:18:36;1.60;;;1.00;;
21000;SDS011;10658;50.920;12.238;2023-07-13T14:22:37;4.60;;;0.80;;
21000;SDS011;10658;50.920;12.238;2023-07-13T14:26:38;1.50;;;0.55;;
21000;SDS011;10658;50.920;12.238;2023-07-13T14:30:40;1.38;;;0.85;;
21000;SDS011;10658;50.920;12.238;2023-07-13T14:34:41;2.47;;;0.82;;
21000;SDS011;10658;50.920;12.238;2023-07-13T14:38:42;4.07;;;1.00;;
21000;SDS011;10658;50.920;12.238;2023-07-13T14:42:43;2.70;;;0.77;;
21000;SDS011;10658;50.920;12.238;2023-07-13T14:46:44;1.17;;;0.70;;
21000;SDS011;10658;50.920;12.238;2023-07-13T14:50:46;0.90;;;0.63;;
21000;SDS011;10658;50.920;12.238;2023-07-13T14:54:47;1.38;;;1.00;;
21000;SDS011;10658;50.920;12.238;2023-07-13T14:58:48;1.98;;;0.70;;
21000;SDS011;10658;50.920;12.238;2023-07-13T15:02:50;1.17;;;0.73;;
21000;SDS011;10658;50.920;12.238;2023-07-13T15:06:55;1.90;;;0.80;;
21000;SDS011;10658;50.920;12.238;2023-07-13T15:11:00;0.93;;;0.57;;
21000;SDS011;10658;50.920;12.238;2023-07-13T15:15:01;2.53;;;0.90;;
21000;SDS011;10658;50.920;12.238;2023-07-13T15:19:02;1.75;;;0.73;;
21000;SDS011;10658;50.920;12.238;2023-07-13T15:23:03;3.72;;;1.33;;
21000;SDS011;10658;50.920;12.238;2023-07-13T15:27:04;1.08;;;0.80;;
21000;SDS011;10658;50.920;12.238;2023-07-13T15:31:30;2.08;;;0.70;;
21000;SDS011;10658;50.920;12.238;2023-07-13T15:35:33;0.70;;;0.60;;
21000;SDS011;10658;50.920;12.238;2023-07-13T15:39:33;0.98;;;0.52;;
21000;SDS011;10658;50.920;12.238;2023-07-13T15:43:35;1.98;;;0.77;;
21000;SDS011;10658;50.920;12.238;2023-07-13T15:47:36;2.45;;;0.88;;
21000;SDS011;10658;50.920;12.238;2023-07-13T15:51:37;1.25;;;0.70;;
21000;SDS011;10658;50.920;12.238;2023-07-13T15:55:38;2.63;;;0.68;;
21000;SDS011;10658;50.920;12.238;2023-07-13T15:59:42;1.15;;;0.55;;
21000;SDS011;10658;50.920;12.238;2023-07-13T16:03:44;1.02;;;0.60;;
21000;SDS011;10658;50.920;12.238;2023-07-13T16:07:47;1.70;;;0.68;;
21000;SDS011;10658;50.920;12.238;2023-07-13T16:11:49;2.10;;;0.80;;
21000;SDS011;10658;50.920;12.238;2023-07-13T16:15:51;0.95;;;0.50;;
21000;SDS011;10658;50.920;12.238;2023-07-13T16:19:53;1.48;;;0.60;;
21000;SDS011;10658;50.920;12.238;2023-07-13T16:23:56;2.05;;;0.63;;
21000;SDS011;10658;50.920;12.238;2023-07-13T16:27:59;3.22;;;0.60;;
21000;SDS011;10658;50.920;12.238;2023-07-13T16:36:04;1.60;;;0.60;;
21000;SDS011;10658;50.920;12.238;2023-07-13T16:40:25;2.80;;;0.60;;
21000;SDS011;10658;50.920;12.238;2023-07-13T16:44:27;1.35;;;0.70;;
21000;SDS011;10658;50.920;12.238;2023-07-13T16:48:31;1.27;;;0.80;;
21000;SDS011;10658;50.920;12.238;2023-07-13T16:52:31;1.10;;;0.68;;
21000;SDS011;10658;50.920;12.238;2023-07-13T16:56:32;2.60;;;0.60;;
21000;SDS011;10658;50.920;12.238;2023-07-13T17:00:34;1.02;;;0.70;;
21000;SDS011;10658;50.920;12.238;2023-07-13T17:04:37;0.95;;;0.60;;
21000;SDS011;10658;50.920;12.238;2023-07-13T17:08:38;0.70;;;0.65;;
21000;SDS011;10658;50.920;12.238;2023-07-13T17:12:38;2.20;;;1.00;;
21000;SDS011;10658;50.920;12.238;2023-07-13T17:16:39;3.63;;;0.80;;
21000;SDS011;10658;50.920;12.238;2023-07-13T17:20:42;2.97;;;0.80;;
21000;SDS011;10658;50.920;12.238;2023-07-13T17:24:45;1.27;;;0.77;;
21000;SDS011;10658;50.920;12.238;2023-07-13T17:28:48;3.20;;;1.02;;
21000;SDS011;10658;50.920;12.238;2023-07-13T17:32:50;2.13;;;0.75;;
21000;SDS011;10658;50.920;12.238;2023-07-13T17:36:54;1.13;;;0.90;;
21000;SDS011;10658;50.920;12.238;2023-07-13T17:40:55;1.10;;;0.68;;
21000;SDS011;10658;50.920;12.238;2023-07-13T17:44:56;1.60;;;0.70;;
21000;SDS011;10658;50.920;12.238;2023-07-13T17:48:56;2.28;;;0.80;;
21000;SDS011;10658;50.920;12.238;2023-07-13T17:52:58;1.85;;;0.85;;
21000;SDS011;10658;50.920;12.238;2023-07-13T17:56:59;1.63;;;0.80;;
21000;SDS011;10658;50.920;12.238;2023-07-13T18:01:01;2.15;;;0.70;;
21000;SDS011;10658;50.920;12.238;2023-07-13T18:05:03;2.92;;;0.70;;
21000;SDS011;10658;50.920;12.238;2023-07-13T18:09:19;7.13;;;1.92;;
21000;SDS011;10658;50.920;12.238;2023-07-13T18:13:21;2.28;;;0.88;;
21000;SDS011;10658;50.920;12.238;2023-07-13T18:17:22;1.63;;;0.93;;
21000;SDS011;10658;50.920;12.238;2023-07-13T18:21:23;1.73;;;0.80;;
21000;SDS011;10658;50.920;12.238;2023-07-13T18:25:26;1.75;;;0.80;;
21000;SDS011;10658;50.920;12.238;2023-07-13T18:29:27;3.45;;;0.60;;
21000;SDS011;10658;50.920;12.238;2023-07-13T18:33:31;1.35;;;0.80;;
21000;SDS011;10658;50.920;12.238;2023-07-13T18:37:34;6.22;;;1.05;;
21000;SDS011;10658;50.920;12.238;2023-07-13T18:41:34;0.90;;;0.60;;
21000;SDS011;10658;50.920;12.238;2023-07-13T18:45:35;1.73;;;0.73;;
21000;SDS011;10658;50.920;12.238;2023-07-13T18:49:36;2.42;;;0.88;;
21000;SDS011;10658;50.920;12.238;2023-07-13T18:53:37;2.42;;;0.73;;
21000;SDS011;10658;50.920;12.238;2023-07-13T18:57:38;1.98;;;0.57;;
21000;SDS011;10658;50.920;12.238;2023-07-13T19:01:38;2.45;;;0.80;;
21000;SDS011;10658;50.920;12.238;2023-07-13T19:05:41;1.83;;;1.02;;
21000;SDS011;10658;50.920;12.238;2023-07-13T19:09:43;3.88;;;1.88;;
21000;SDS011;10658;50.920;12.238;2023-07-13T19:13:44;5.28;;;3.60;;
21000;SDS011;10658;50.920;12.238;2023-07-13T19:17:45;2.38;;;1.38;;
21000;SDS011;10658;50.920;12.238;2023-07-13T19:21:47;3.75;;;2.05;;
21000;SDS011;10658;50.920;12.238;2023-07-13T19:25:50;4.63;;;2.28;;
21000;SDS011;10658;50.920;12.238;2023-07-13T19:29:52;7.55;;;1.65;;
21000;SDS011;10658;50.920;12.238;2023-07-13T19:33:53;8.38;;;2.78;;
21000;SDS011;10658;50.920;12.238;2023-07-13T19:37:54;8.27;;;1.30;;
21000;SDS011;10658;50.920;12.238;2023-07-13T19:41:55;4.82;;;1.33;;
21000;SDS011;10658;50.920;12.238;2023-07-13T19:45:59;2.25;;;1.02;;
21000;SDS011;10658;50.920;12.238;2023-07-13T19:49:59;3.90;;;1.15;;
21000;SDS011;10658;50.920;12.238;2023-07-13T19:54:02;9.98;;;1.10;;
21000;SDS011;10658;50.920;12.238;2023-07-13T19:58:09;2.03;;;1.05;;
21000;SDS011;10658;50.920;12.238;2023-07-13T20:02:10;5.15;;;1.02;;
21000;SDS011;10658;50.920;12.238;2023-07-13T20:10:27;1.95;;;0.90;;
21000;SDS011;10658;50.920;12.238;2023-07-13T20:14:29;4.22;;;1.50;;
21000;SDS011;10658;50.920;12.238;2023-07-13T20:18:31;4.05;;;1.90;;
21000;SDS011;10658;50.920;12.238;2023-07-13T20:22:32;4.40;;;1.63;;
21000;SDS011;10658;50.920;12.238;2023-07-13T20:26:33;3.00;;;1.00;;
21000;SDS011;10658;50.920;12.238;2023-07-13T20:30:34;2.95;;;1.10;;
21000;SDS011;10658;50.920;12.238;2023-07-13T20:34:38;1.73;;;1.50;;
21000;SDS011;10658;50.920;12.238;2023-07-13T20:38:40;3.83;;;1.65;;
21000;SDS011;10658;50.920;12.238;2023-07-13T20:42:41;4.88;;;1.85;;
21000;SDS011;10658;50.920;12.238;2023-07-13T20:46:42;4.63;;;1.60;;
21000;SDS011;10658;50.920;12.238;2023-07-13T20:50:43;5.15;;;1.83;;
21000;SDS011;10658;50.920;12.238;2023-07-13T20:54:46;12.25;;;2.25;;
21000;SDS011;10658;50.920;12.238;2023-07-13T20:58:48;2.42;;;1.90;;
21000;SDS011;10658;50.920;12.238;2023-07-13T21:02:50;5.32;;;2.17;;
21000;SDS011;10658;50.920;12.238;2023-07-13T21:06:57;3.10;;;2.33;;
21000;SDS011;10658;50.920;12.238;2023-07-13T21:10:58;3.55;;;2.20;;
21000;SDS011;10658;50.920;12.238;2023-07-13T21:14:59;2.45;;;1.63;;
21000;SDS011;10658;50.920;12.238;2023-07-13T21:19:01;3.38;;;2.10;;
21000;SDS011;10658;50.920;12.238;2023-07-13T21:23:02;5.57;;;2.33;;
21000;SDS011;10658;50.920;12.238;2023-07-13T21:27:11;4.80;;;2.28;;
21000;SDS011;10658;50.920;12.238;2023-07-13T21:35:31;4.05;;;2.20;;
21000;SDS011;10658;50.920;12.238;2023-07-13T21:39:38;2.92;;;2.03;;
21000;SDS011;10658;50.920;12.238;2023-07-13T21:43:40;3.67;;;2.00;;
21000;SDS011;10658;50.920;12.238;2023-07-13T21:47:41;3.67;;;1.88;;
21000;SDS011;10658;50.920;12.238;2023-07-13T21:51:41;2.08;;;1.88;;
21000;SDS011;10658;50.920;12.238;2023-07-13T21:55:43;3.00;;;1.75;;
21000;SDS011;10658;50.920;12.238;2023-07-13T21:59:44;4.43;;;1.83;;
21000;SDS011;10658;50.920;12.238;2023-07-13T22:03:46;3.33;;;2.28;;
21000;SDS011;10658;50.920;12.238;2023-07-13T22:07:50;2.92;;;1.90;;
21000;SDS011;10658;50.920;12.238;2023-07-13T22:11:52;3.25;;;1.60;;
21000;SDS011;10658;50.920;12.238;2023-07-13T22:15:53;2.88;;;1.67;;
21000;SDS011;10658;50.920;12.238;2023-07-13T22:19:54;3.80;;;2.03;;
21000;SDS011;10658;50.920;12.238;2023-07-13T22:23:56;2.92;;;1.80;;
21000;SDS011;10658;50.920;12.238;2023-07-13T22:27:57;3.55;;;2.22;;
21000;SDS011;10658;50.920;12.238;2023-07-13T22:31:58;3.03;;;1.75;;
21000;SDS011;10658;50.920;12.238;2023-07-13T22:35:59;2.90;;;2.53;;
21000;SDS011;10658;50.920;12.238;2023-07-13T22:40:00;3.13;;;1.85;;
21000;SDS011;10658;50.920;12.238;2023-07-13T22:44:01;4.55;;;1.98;;
21000;SDS011;10658;50.920;12.238;2023-07-13T22:48:01;4.53;;;1.90;;
21000;SDS011;10658;50.920;12.238;2023-07-13T22:52:03;3.15;;;1.70;;
21000;SDS011;10658;50.920;12.238;2023-07-13T22:56:04;2.35;;;1.55;;
21000;SDS011;10658;50.920;12.238;2023-07-13T23:00:05;7.05;;;2.00;;
21000;SDS011;10658;50.920;12.238;2023-07-13T23:04:29;2.88;;;1.95;;
21000;SDS011;10658;50.920;12.238;2023-07-13T23:08:32;5.72;;;1.88;;
21000;SDS011;10658;50.920;12.238;2023-07-13T23:12:32;3.15;;;1.95;;
21000;SDS011;10658;50.920;12.238;2023-07-13T23:16:33;2.67;;;2.03;;
21000;SDS011;10658;50.920;12.238;2023-07-13T23:20:35;7.07;;;2.83;;
21000;SDS011;10658;50.920;12.238;2023-07-13T23:24:37;2.42;;;1.75;;
21000;SDS011;10658;50.920;12.238;2023-07-13T23:28:38;2.60;;;1.85;;
21000;SDS011;10658;50.920;12.238;2023-07-13T23:32:42;2.90;;;1.73;;
21000;SDS011;10658;50.920;12.238;2023-07-13T23:36:43;5.28;;;1.60;;
21000;SDS011;10658;50.920;12.238;2023-07-13T23:40:45;3.83;;;1.70;;
21000;SDS011;10658;50.920;12.238;2023-07-13T23:44:45;2.47;;;2.00;;
21000;SDS011;10658;50.920;12.238;2023-07-13T23:48:46;4.40;;;2.10;;
21000;SDS011;10658;50.920;12.238;2023-07-13T23:52:48;2.17;;;1.60;;
21000;SDS011;10658;50.920;12.238;2023-07-13T23:56:49;2.17;;;1.50;;
